ADDS METAR Data INFO
IDs: Format: Raw Decoded Include TAF

Data at: 0404 UTC 11 Dec 2017

KBCB 110355Z AUTO 26003KT 10SM CLR M01/M08 A3008 RMK AO2 T10131080
KBCB 110340Z AUTO 00000KT 10SM CLR M01/M08 A3008 RMK AO2 T10131078
KBCB 110310Z AUTO 00000KT 10SM CLR M01/M08 A3008 RMK AO2 T10111079
KBCB 110255Z AUTO 00000KT 10SM CLR M01/M08 A3007 RMK AO2 T10091078
KBCB 110235Z AUTO 00000KT 10SM CLR M01/M08 A3006 RMK AO2 T10071077
KBCB 110215Z AUTO 25004KT 10SM SCT080 00/M07 A3007 RMK AO2 T10051075
KBCB 110155Z AUTO 25006KT 10SM OVC080 00/M07 A3007 RMK AO2 T10021073
KBCB 110135Z AUTO 25003KT 10SM BKN080 00/M07 A3007 RMK AO2 T10031072
KBCB 110120Z AUTO 25004KT 10SM SCT080 00/M07 A3007 RMK AO2 T10011073
KBCB 110055Z AUTO 26004KT 10SM CLR 00/M07 A3006 RMK AO2 T00001075
KBCB 110035Z AUTO 24007KT 210V280 10SM CLR 00/M07 A3006 RMK AO2 T10011073
KBCB 110015Z AUTO 24004KT 10SM CLR 00/M07 A3006 RMK AO2 T00001071
KBCB 110000Z AUTO 26004KT 10SM SCT080 00/M07 A3006 RMK AO2 T00001070
KBCB 102336Z AUTO 26003KT 10SM CLR 00/M07 A3006 RMK AO2
KBCB 102320Z AUTO 27003KT 10SM CLR 00/M07 A3006 RMK AO2 T00001067
KBCB 102255Z AUTO 24004KT 10SM CLR 00/M07 A3006 RMK AO2 T00021067
KBCB 102235Z AUTO 24005KT 10SM CLR 01/M07 A3006 RMK AO2 T00051067
KBCB 102215Z AUTO 24004KT 10SM CLR 01/M07 A3006 RMK AO2 T00061067
KBCB 102155Z AUTO 22005KT 10SM CLR 01/M07 A3005 RMK AO2 T00071066
KBCB 102135Z AUTO 23006KT 10SM CLR 01/M07 A3006 RMK AO2 T00121066
KBCB 102115Z AUTO 21004KT 10SM CLR 02/M07 A3006 RMK AO2 T00181066
KBCB 102055Z AUTO 24006KT 10SM CLR 02/M07 A3006 RMK AO2 T00211066
KBCB 102035Z AUTO 22004KT 10SM CLR 02/M07 A3005 RMK AO2 T00181066
KBCB 102015Z AUTO 24007KT 190V260 10SM CLR 02/M07 A3005 RMK AO2 T00221068
KBCB 101955Z AUTO 26008KT 220V300 10SM CLR 02/M07 A3006 RMK AO2 T00221069
KBCB 101935Z AUTO 26006KT 10SM CLR 02/M08 A3006 RMK AO2 T00241078
KBCB 101915Z AUTO 26008KT 10SM CLR 02/M08 A3006 RMK AO2 T00201079
KBCB 101855Z AUTO 26005KT 10SM CLR 02/M07 A3006 RMK AO2 T00181074
KBCB 101835Z AUTO 25007KT 10SM CLR 02/M07 A3006 RMK AO2 T00151071
KBCB 101815Z AUTO 27005KT 10SM CLR 01/M07 A3007 RMK AO2 T00111071
KBCB 101755Z AUTO 26006KT 10SM CLR 01/M07 A3008 RMK AO2 T00061073 10006 21026
KBCB 101735Z AUTO 26006KT 10SM SCT032 00/M07 A3009 RMK AO2 T00041073
KBCB 101715Z AUTO 29005KT 10SM SCT032 00/M07 A3010 RMK AO2 T00011069
KBCB 101655Z AUTO 30004G15KT 10SM SCT030 00/M07 A3012 RMK AO2 T10011073
KBCB 101635Z AUTO 30006KT 10SM BKN030 M01/M08 A3012 RMK AO2 T10101079
KBCB 101615Z AUTO 28007KT 210V330 10SM BKN028 M01/M07 A3012 RMK AO2 T10121072
KBCB 101555Z AUTO 29008KT 10SM BKN028 M01/M08 A3013 RMK AO2 T10151076
KBCB 101535Z AUTO 29007G17KT 260V320 10SM BKN028 M01/M07 A3013 RMK AO2 T10151073
KBCB 101515Z AUTO 30011G18KT 10SM OVC028 M02/M08 A3013 RMK AO2 T10171077
KBCB 101455Z AUTO 29008G18KT 240V320 10SM OVC028 M02/M07 A3012 RMK AO2 T10201074
KBCB 101435Z AUTO 28008G16KT 240V310 10SM OVC026 M02/M08 A3011 RMK AO2 T10221076
KBCB 101415Z AUTO 29011G20KT 10SM OVC026 M02/M08 A3010 RMK AO2 T10251076
KBCB 101355Z AUTO 28008G21KT 230V320 10SM OVC026 M02/M07 A3009 RMK AO2 T10251075
KBCB 101335Z AUTO 30009G17KT 10SM OVC024 M02/M07 A3008 RMK AO2 T10251073
KBCB 101315Z AUTO 30012G17KT 10SM OVC024 M02/M07 A3008 RMK AO2 T10251070
KBCB 101255Z AUTO 28008G14KT 10SM OVC024 M02/M07 A3007 RMK AO2 T10251070
KBCB 101235Z AUTO 29007KT 10SM OVC024 M03/M07 A3006 RMK AO2 T10261069
KBCB 101215Z AUTO 30006KT 10SM -SN BKN024 OVC031 M03/M07 A3006 RMK AO2 T10261066
KBCB 101155Z AUTO 30010G15KT 10SM -SN OVC022 M03/M07 A3005 RMK AO2 70009 T10261067 11022 21030
KBCB 101135Z AUTO 30008G14KT 270V330 10SM -SN OVC022 M03/M06 A3005 RMK AO2 T10271065
KBCB 101115Z AUTO 29010G19KT 260V320 10SM -SN BKN022 OVC028 M03/M06 A3004 RMK AO2 T10281062
KBCB 101055Z AUTO 30011G19KT 10SM -SN OVC022 M03/M06 A3003 RMK AO2 T10281061
KBCB 101035Z AUTO 30008G21KT 10SM -SN BKN024 BKN028 OVC033 M03/M06 A3002 RMK AO2 T10261062
KBCB 101015Z AUTO 30009G16KT 260V330 5SM -SN OVC022 M03/M06 A3001 RMK AO2 T10271060
KBCB 100955Z AUTO 30009KT 5SM -SN OVC025 M03/M06 A3000 RMK AO2 T10271060
KBCB 100935Z AUTO 29010G16KT 250V320 7SM -SN BKN025 OVC033 M03/M06 A2999 RMK AO2 T10261065
KBCB 100915Z AUTO 29012G21KT 260V320 7SM -SN OVC027 M02/M07 A2998 RMK AO2 T10251067
KBCB 100855Z AUTO 29009G19KT 250V310 10SM OVC031 M02/M07 A2996 RMK AO2 T10251073
KBCB 100835Z AUTO 29010G19KT 10SM OVC031 M03/M08 A2996 RMK AO2 T10261080
KBCB 100815Z AUTO 29011G20KT 10SM OVC029 M03/M07 A2996 RMK AO2 T10261075
KBCB 100755Z AUTO 28013G21KT 10SM SCT030 BKN035 OVC047 M03/M07 A2995 RMK AO2 T10261071
KBCB 100735Z AUTO 29011G23KT 250V320 7SM -SN SCT029 BKN035 OVC042 M02/M07 A2994 RMK AO2 T10251070
KBCB 100715Z AUTO 29014G20KT 10SM SCT029 OVC037 M02/M07 A2994 RMK AO2 T10251070
KBCB 100655Z AUTO 30013G24KT 10SM BKN030 BKN037 OVC048 M02/M07 A2994 RMK AO2 T10231071
KBCB 100635Z AUTO 30010G17KT 10SM -SN BKN028 BKN033 OVC050 M02/M07 A2994 RMK AO2 T10221070
KBCB 100615Z AUTO 29013G19KT 240V310 10SM BKN028 OVC033 M02/M07 A2993 RMK AO2 T10231067
KBCB 100555Z AUTO 29011G19KT 270V330 10SM SCT028 BKN036 OVC045 M02/M07 A2993 RMK AO2 T10251070 10000 21025
KBCB 100535Z AUTO 28009G18KT 10SM SCT030 BKN039 BKN047 M02/M07 A2992 RMK AO2 T10251072
KBCB 100515Z AUTO 29012G19KT 260V320 10SM SCT030 BKN036 BKN049 M02/M08 A2992 RMK AO2 T10251076
KBCB 100455Z AUTO 29011G17KT 10SM SCT041 SCT049 BKN065 M02/M07 A2991 RMK AO2 T10241071 400121025
KBCB 100435Z AUTO 29010G17KT 10SM OVC065 M02/M07 A2990 RMK AO2 T10221067
KBCB 100415Z AUTO 30012G18KT 10SM SCT009 SCT025 OVC065 M02/M07 A2990 RMK AO2 T10201067
KBCB 100355Z AUTO 29012G18KT 4SM -SN SCT011 BKN033 OVC065 M01/M06 A2990 RMK AO2 T10121060
KBCB 100335Z AUTO 29011G15KT 10SM BKN031 BKN037 OVC065 M01/M06 A2988 RMK AO2 T10101065
KBCB 100315Z AUTO 29008KT 10SM OVC037 M01/M07 A2987 RMK AO2 T10071066
KBCB 100255Z AUTO 29010G17KT 10SM OVC040 00/M06 A2985 RMK AO2 T10051065
KBCB 100235Z AUTO 28006G18KT 10SM BKN042 OVC070 00/M07 A2985 RMK AO2 T10051066
KBCB 100220Z AUTO 29010KT 10SM SCT046 OVC070 M01/M07 A2984 RMK AO2 T10061068
KBCB 100155Z AUTO 26005KT 10SM SCT048 BKN070 OVC100 M01/M04 A2984 RMK AO2 T10101039
KBCB 100135Z AUTO 25003KT 10SM BKN060 BKN075 OVC100 00/M04 A2983 RMK AO2 T10051037
KBCB 100115Z AUTO 00000KT 10SM SCT060 BKN075 OVC100 00/M03 A2982 RMK AO2 T10021034
KBCB 100055Z AUTO 25005KT 10SM OVC100 00/M03 A2982 RMK AO2 T10011035
KBCB 100035Z AUTO 25006KT 10SM OVC090 00/M03 A2982 RMK AO2 T00001035
KBCB 100015Z AUTO 25003KT 10SM SCT070 OVC090 00/M04 A2981 RMK AO2 T10011036
KBCB 092355Z AUTO 25006KT 10SM BKN070 OVC090 00/M04 A2980 RMK AO2 60009 T10011036 10012 21007
KBCB 092335Z AUTO 25005KT 10SM OVC090 00/M04 A2979 RMK AO2 T10021036
KBCB 092315Z AUTO 00000KT 10SM SCT075 OVC100 00/M03 A2979 RMK AO2 T10011034
KBCB 092255Z AUTO 00000KT 10SM SCT046 BKN100 00/M04 A2977 RMK AO2 T10011037
KBCB 092235Z AUTO 24004KT 10SM SCT027 00/M03 A2977 RMK AO2 T00001033
KBCB 092215Z AUTO 23003KT 10SM BKN027 00/M03 A2976 RMK AO2 T00011027
KBCB 092155Z AUTO 22004KT 10SM OVC025 01/M02 A2975 RMK AO2 P0001 T00051021
KBCB 092135Z AUTO 00000KT 10SM BKN023 01/M02 A2975 RMK AO2 P0001 T00051017
KBCB 092115Z AUTO 18003KT 10SM SCT019 SCT026 01/M02 A2975 RMK AO2 P0001 T00051020
KBCB 092055Z AUTO 00000KT 10SM BKN019 01/M02 A2975 RMK AO2 P0004 60008 T00121020
KBCB 092035Z AUTO 00000KT 10SM SCT015 SCT021 BKN120 01/M02 A2975 RMK AO2 P0003 T00091020
KBCB 092015Z AUTO 20005KT 10SM BKN017 OVC110 01/M02 A2975 RMK AO2 P0001 T00051021
KBCB 091955Z AUTO 23003KT 10SM SCT017 SCT028 OVC110 01/M02 A2975 RMK AO2 P0003 T00051019
KBCB 091935Z AUTO 00000KT 10SM OVC110 01/M02 A2976 RMK AO2 P0001 T00061024
KBCB 091915Z AUTO 00000KT 10SM BKN100 BKN120 00/M02 A2976 RMK AO2 T00021023
KBCB 091855Z AUTO 24003KT 10SM BKN090 BKN120 00/M02 A2976 RMK AO2 T00001021
KBCB 091835Z AUTO 25004KT 10SM OVC100 00/M02 A2976 RMK AO2 T00001022
KBCB 091815Z AUTO 26003KT 10SM SCT033 SCT043 OVC090 00/M02 A2976 RMK AO2 T10021020
KBCB 091755Z AUTO 00000KT 10SM SCT027 BKN035 OVC090 M01/M02 A2977 RMK AO2 T10071021 11007 21022
KBCB 091735Z AUTO 00000KT 2 1/2SM -SN SCT007 BKN024 OVC043 M01/M02 A2978 RMK AO2 T10111021
KBCB 091715Z AUTO 27003KT 3SM -SN SCT007 BKN030 OVC044 M01/M02 A2979 RMK AO2 T10091020
KBCB 091655Z AUTO 00000KT 1 1/4SM -SN SCT007 BKN028 OVC036 M01/M02 A2979 RMK AO2 T10121022
KBCB 091635Z AUTO 00000KT 1 1/4SM -SN SCT005 SCT019 OVC029 M01/M02 A2981 RMK AO2 T10141023
KBCB 091615Z AUTO 00000KT 1 1/4SM -SN SCT005 SCT024 OVC029 M01/M02 A2982 RMK AO2 T10151022